Terminal Aerodrome Forecast
Issued by NWS Memphis, TN

Home | Current Version | Previous Version | Text Only | Print | Product List | Glossary On
Versions: 1 2 3 4 5 6 7 8 9 10 11 12 13 14 15 16 17 18 19 20 21 22 23 24 25 26 27 28 29 30 31 32 33
000
FTUS44 KMEG 271741
TAFMEM
TAF
KMEM 271741Z 2718/2818 04010KT P6SM SCT025
      TEMPO 2718/2719 BKN025
     FM272000 04010KT P6SM SCT035 BKN250
     FM272300 03010KT P6SM BKN090 OVC250
     FM280600 05008KT P6SM OVC080
     FM281000 05008KT P6SM BKN050 OVC080=

USA.gov is the U.S. government's official web portal to all federal, state and local government web resources and services.